Limerick, New York
Current Conditions -  °F | °C
As of 11:56 PM on Sunday 21 Dec 2014 (Local Time) from KART Reporting Station
Haze Haze  
Wind Chill: 24°   Ceiling: 3200
Heat Index: 24°   Visibility: 6mi
Dew Point: 18°   Wind: 3mph
Humidity: 77%   Direction: 70°ENE
Pressure: 30.34"   Gusts: NA
Location:  44.03°N, 76.04°W
Report Text: KART 220456Z AUTO 07003KT 6SM HZ OVC032 M04/M08 A3034 RMK AO2 SLP280 T10441078 400221072
Loading
Personal Weather Stations






























Interactive Weather Map New forecast layout! Learn more

10-Day Weather Forecast

Advertisements
Track Severe Weather on mobile